BAW437Z EHAM-EGLL
Flight info
| Callsign | BAW437Z |
|---|---|
| Flight time | 0h 47m |
| Altitude | 24000 |
| Route | N0403F240 IDRID L980 LOGAN |
| Aircraft | A320/M-SDE3FGIJ1KRWXY/SB1 |
Departure
| Time | 2026-05-06 15:54 |
|---|---|
| Airport | Amsterdam Airport Schiphol (EHAM) |
Arrival
| Time | 2026-05-06 16:41 |
|---|---|
| Airport | London Heathrow Airport (EGLL) |
| Time | Latitude | Longitude | Altitude | Speed | Heading |
|---|---|---|---|---|---|
| 2026-05-06 14:51 | 52.30715 | 4.77089 | -1 ft | 0 kts | 3° |
| 2026-05-06 15:41 | 52.30705 | 4.77089 | -1 ft | 4 kts | 3° |
| 2026-05-06 15:41 | 52.30685 | 4.77082 | -1 ft | 3 kts | 19° |
| 2026-05-06 15:42 | 52.30669 | 4.77082 | -1 ft | 3 kts | 305° |
| 2026-05-06 15:42 | 52.30659 | 4.77107 | -1 ft | 0 kts | 303° |
| 2026-05-06 15:46 | 52.30661 | 4.77098 | -1 ft | 3 kts | 290° |
| 2026-05-06 15:46 | 52.30647 | 4.77053 | -1 ft | 7 kts | 221° |
| 2026-05-06 15:46 | 52.30591 | 4.77046 | -1 ft | 10 kts | 160° |
| 2026-05-06 15:47 | 52.30527 | 4.77090 | -1 ft | 10 kts | 189° |
| 2026-05-06 15:47 | 52.30475 | 4.76991 | -1 ft | 13 kts | 238° |
| 2026-05-06 15:47 | 52.30420 | 4.76848 | -1 ft | 16 kts | 237° |
| 2026-05-06 15:47 | 52.30353 | 4.76675 | -1 ft | 19 kts | 237° |
| 2026-05-06 15:48 | 52.30276 | 4.76474 | -1 ft | 22 kts | 238° |
| 2026-05-06 15:48 | 52.30193 | 4.76257 | -1 ft | 20 kts | 238° |
| 2026-05-06 15:48 | 52.30114 | 4.76050 | -1 ft | 23 kts | 238° |
| 2026-05-06 15:48 | 52.30025 | 4.75820 | -1 ft | 24 kts | 238° |
| 2026-05-06 15:49 | 52.29940 | 4.75599 | -1 ft | 24 kts | 238° |
| 2026-05-06 15:49 | 52.29869 | 4.75413 | -1 ft | 16 kts | 237° |
| 2026-05-06 15:49 | 52.29830 | 4.75252 | -1 ft | 16 kts | 275° |
| 2026-05-06 15:49 | 52.29899 | 4.75090 | -1 ft | 19 kts | 310° |
| 2026-05-06 15:50 | 52.29957 | 4.74977 | -1 ft | 16 kts | 304° |
| 2026-05-06 15:50 | 52.29966 | 4.74828 | 0 ft | 14 kts | 268° |
| 2026-05-06 15:50 | 52.29980 | 4.74671 | 6 ft | 15 kts | 305° |
| 2026-05-06 15:50 | 52.30085 | 4.74496 | 9 ft | 19 kts | 315° |
| 2026-05-06 15:51 | 52.30182 | 4.74336 | 9 ft | 20 kts | 314° |
| 2026-05-06 15:51 | 52.30251 | 4.74216 | 0 ft | 20 kts | 311° |
| 2026-05-06 15:51 | 52.30329 | 4.74076 | -1 ft | 16 kts | 322° |
| 2026-05-06 15:51 | 52.30416 | 4.74044 | -1 ft | 8 kts | 328° |
| 2026-05-06 15:52 | 52.30407 | 4.73939 | -1 ft | 11 kts | 265° |
| 2026-05-06 15:52 | 52.30418 | 4.73808 | -3 ft | 11 kts | 281° |
| 2026-05-06 15:52 | 52.30455 | 4.73761 | -3 ft | 2 kts | 359° |
| 2026-05-06 15:52 | 52.30462 | 4.73761 | -3 ft | 0 kts | 4° |
| 2026-05-06 15:53 | 52.30462 | 4.73762 | -3 ft | 1 kts | 4° |
| 2026-05-06 15:53 | 52.30566 | 4.73774 | -3 ft | 47 kts | 4° |
| 2026-05-06 15:53 | 52.31151 | 4.73826 | -1 ft | 117 kts | 3° |
| 2026-05-06 15:53 | 52.32137 | 4.73909 | 122 ft | 157 kts | 9° |
| 2026-05-06 15:54 | 52.33219 | 4.74017 | 928 ft | 155 kts | 8° |
| 2026-05-06 15:54 | 52.34288 | 4.74157 | 1780 ft | 154 kts | 9° |
| 2026-05-06 15:54 | 52.35351 | 4.74100 | 2547 ft | 155 kts | 350° |
| 2026-05-06 15:54 | 52.36369 | 4.73462 | 3238 ft | 158 kts | 343° |
| 2026-05-06 15:55 | 52.37420 | 4.72715 | 3724 ft | 174 kts | 342° |
| 2026-05-06 15:55 | 52.38615 | 4.71915 | 4110 ft | 196 kts | 343° |
| 2026-05-06 15:55 | 52.39878 | 4.71065 | 4918 ft | 196 kts | 342° |
| 2026-05-06 15:55 | 52.41142 | 4.70223 | 5679 ft | 197 kts | 342° |
| 2026-05-06 15:56 | 52.42391 | 4.69434 | 6563 ft | 190 kts | 341° |
| 2026-05-06 15:56 | 52.43619 | 4.68655 | 7187 ft | 197 kts | 335° |
| 2026-05-06 15:56 | 52.44662 | 4.66967 | 7577 ft | 227 kts | 296° |
| 2026-05-06 15:56 | 52.44859 | 4.64322 | 8013 ft | 255 kts | 258° |
| 2026-05-06 15:57 | 52.44167 | 4.61493 | 8536 ft | 280 kts | 242° |
| 2026-05-06 15:57 | 52.43135 | 4.58717 | 9387 ft | 290 kts | 237° |
| 2026-05-06 15:57 | 52.41980 | 4.55962 | 10168 ft | 301 kts | 237° |
| 2026-05-06 15:57 | 52.40735 | 4.53038 | 10538 ft | 324 kts | 237° |
| 2026-05-06 15:58 | 52.39444 | 4.49948 | 11214 ft | 332 kts | 237° |
| 2026-05-06 15:58 | 52.38154 | 4.46784 | 12053 ft | 335 kts | 238° |
| 2026-05-06 15:58 | 52.36873 | 4.43579 | 12947 ft | 337 kts | 238° |
| 2026-05-06 15:58 | 52.35598 | 4.40343 | 13857 ft | 338 kts | 239° |
| 2026-05-06 15:59 | 52.34328 | 4.37094 | 14637 ft | 341 kts | 239° |
| 2026-05-06 15:59 | 52.33050 | 4.33805 | 15362 ft | 345 kts | 238° |
| 2026-05-06 15:59 | 52.31760 | 4.30481 | 16117 ft | 347 kts | 239° |
| 2026-05-06 15:59 | 52.30461 | 4.27146 | 16882 ft | 349 kts | 239° |
| 2026-05-06 16:00 | 52.29163 | 4.23815 | 17603 ft | 353 kts | 239° |
| 2026-05-06 16:00 | 52.27831 | 4.20415 | 18322 ft | 356 kts | 238° |
| 2026-05-06 16:00 | 52.26501 | 4.17034 | 18963 ft | 359 kts | 238° |
| 2026-05-06 16:00 | 52.25142 | 4.13590 | 19707 ft | 361 kts | 238° |
| 2026-05-06 16:01 | 52.23780 | 4.10138 | 20385 ft | 364 kts | 238° |
| 2026-05-06 16:01 | 52.22402 | 4.06644 | 21004 ft | 369 kts | 238° |
| 2026-05-06 16:01 | 52.21008 | 4.03117 | 21635 ft | 372 kts | 238° |
| 2026-05-06 16:01 | 52.19597 | 3.99562 | 22263 ft | 375 kts | 238° |
| 2026-05-06 16:02 | 52.18168 | 3.95969 | 22881 ft | 379 kts | 237° |
| 2026-05-06 16:02 | 52.16723 | 3.92340 | 23490 ft | 383 kts | 238° |
| 2026-05-06 16:02 | 52.15273 | 3.88699 | 23822 ft | 382 kts | 238° |
| 2026-05-06 16:02 | 52.13838 | 3.85089 | 23904 ft | 378 kts | 238° |
| 2026-05-06 16:03 | 52.12415 | 3.81514 | 23916 ft | 375 kts | 238° |
| 2026-05-06 16:03 | 52.10996 | 3.77952 | 23917 ft | 374 kts | 238° |
| 2026-05-06 16:03 | 52.09583 | 3.74410 | 23918 ft | 372 kts | 238° |
| 2026-05-06 16:03 | 52.08174 | 3.70887 | 23920 ft | 372 kts | 238° |
| 2026-05-06 16:04 | 52.06758 | 3.67358 | 23917 ft | 373 kts | 237° |
| 2026-05-06 16:04 | 52.05337 | 3.63824 | 23920 ft | 373 kts | 237° |
| 2026-05-06 16:04 | 52.03919 | 3.60308 | 23919 ft | 371 kts | 237° |
| 2026-05-06 16:04 | 52.02511 | 3.56818 | 23917 ft | 378 kts | 237° |
| 2026-05-06 16:05 | 52.01061 | 3.53225 | 23921 ft | 382 kts | 237° |
| 2026-05-06 16:05 | 51.99606 | 3.49619 | 23928 ft | 381 kts | 237° |
| 2026-05-06 16:05 | 51.98109 | 3.46071 | 23926 ft | 383 kts | 235° |
| 2026-05-06 16:05 | 51.96544 | 3.42564 | 23928 ft | 385 kts | 234° |
| 2026-05-06 16:06 | 51.94945 | 3.39082 | 23923 ft | 385 kts | 234° |
| 2026-05-06 16:06 | 51.93340 | 3.35620 | 23923 ft | 383 kts | 234° |
| 2026-05-06 16:06 | 51.91740 | 3.32159 | 23923 ft | 384 kts | 234° |
| 2026-05-06 16:06 | 51.90143 | 3.28683 | 23937 ft | 384 kts | 234° |
| 2026-05-06 16:07 | 51.88554 | 3.25204 | 23936 ft | 384 kts | 234° |
| 2026-05-06 16:07 | 51.86979 | 3.21718 | 23939 ft | 383 kts | 236° |
| 2026-05-06 16:07 | 51.85677 | 3.17959 | 23932 ft | 383 kts | 246° |
| 2026-05-06 16:07 | 51.84831 | 3.13878 | 23932 ft | 383 kts | 257° |
| 2026-05-06 16:08 | 51.84441 | 3.09611 | 23947 ft | 384 kts | 264° |
| 2026-05-06 16:08 | 51.84176 | 3.05317 | 23950 ft | 384 kts | 263° |
| 2026-05-06 16:08 | 51.83898 | 3.01022 | 23951 ft | 384 kts | 263° |
| 2026-05-06 16:08 | 51.83614 | 2.96729 | 23948 ft | 385 kts | 263° |
| 2026-05-06 16:09 | 51.83329 | 2.92430 | 23948 ft | 385 kts | 263° |
| 2026-05-06 16:09 | 51.83041 | 2.88131 | 23961 ft | 384 kts | 263° |
| 2026-05-06 16:09 | 51.82750 | 2.83836 | 23961 ft | 384 kts | 263° |
| 2026-05-06 16:09 | 51.82465 | 2.79599 | 23961 ft | 384 kts | 263° |
| 2026-05-06 16:10 | 51.82171 | 2.75252 | 23963 ft | 384 kts | 263° |
| 2026-05-06 16:10 | 51.81878 | 2.70958 | 23967 ft | 384 kts | 263° |
| 2026-05-06 16:10 | 51.81583 | 2.66668 | 23968 ft | 384 kts | 263° |
| 2026-05-06 16:10 | 51.81292 | 2.62427 | 23968 ft | 384 kts | 263° |
| 2026-05-06 16:11 | 51.80997 | 2.58141 | 23969 ft | 384 kts | 263° |
| 2026-05-06 16:11 | 51.80701 | 2.53845 | 23969 ft | 384 kts | 263° |
| 2026-05-06 16:11 | 51.80404 | 2.49559 | 23972 ft | 384 kts | 263° |
| 2026-05-06 16:11 | 51.80106 | 2.45270 | 23972 ft | 384 kts | 263° |
| 2026-05-06 16:12 | 51.79805 | 2.40982 | 23981 ft | 384 kts | 263° |
| 2026-05-06 16:12 | 51.79501 | 2.36698 | 23978 ft | 384 kts | 263° |
| 2026-05-06 16:12 | 51.79194 | 2.32415 | 23977 ft | 384 kts | 263° |
| 2026-05-06 16:12 | 51.78884 | 2.28124 | 23976 ft | 384 kts | 263° |
| 2026-05-06 16:13 | 51.78572 | 2.23840 | 23967 ft | 384 kts | 263° |
| 2026-05-06 16:13 | 51.78269 | 2.19545 | 23969 ft | 384 kts | 263° |
| 2026-05-06 16:13 | 51.78003 | 2.15253 | 23970 ft | 385 kts | 264° |
| 2026-05-06 16:13 | 51.77758 | 2.10953 | 23971 ft | 385 kts | 264° |
| 2026-05-06 16:14 | 51.77520 | 2.06652 | 23972 ft | 385 kts | 264° |
| 2026-05-06 16:14 | 51.77278 | 2.02351 | 23973 ft | 385 kts | 264° |
| 2026-05-06 16:14 | 51.77031 | 1.98057 | 23974 ft | 385 kts | 264° |
| 2026-05-06 16:14 | 51.76778 | 1.93752 | 23983 ft | 385 kts | 264° |
| 2026-05-06 16:15 | 51.76520 | 1.89453 | 23980 ft | 385 kts | 264° |
| 2026-05-06 16:15 | 51.76259 | 1.85150 | 23977 ft | 386 kts | 264° |
| 2026-05-06 16:15 | 51.75994 | 1.80845 | 23976 ft | 386 kts | 264° |
| 2026-05-06 16:15 | 51.75729 | 1.76531 | 23975 ft | 386 kts | 264° |
| 2026-05-06 16:16 | 51.75463 | 1.72274 | 23975 ft | 386 kts | 264° |
| 2026-05-06 16:16 | 51.75190 | 1.67965 | 23976 ft | 386 kts | 264° |
| 2026-05-06 16:16 | 51.74917 | 1.63648 | 23977 ft | 386 kts | 264° |
| 2026-05-06 16:16 | 51.74645 | 1.59347 | 23876 ft | 382 kts | 264° |
| 2026-05-06 16:17 | 51.74376 | 1.55124 | 23530 ft | 376 kts | 264° |
| 2026-05-06 16:17 | 51.74108 | 1.50933 | 23012 ft | 374 kts | 264° |
| 2026-05-06 16:17 | 51.73840 | 1.46772 | 22543 ft | 370 kts | 264° |
| 2026-05-06 16:17 | 51.73576 | 1.42668 | 22063 ft | 367 kts | 264° |
| 2026-05-06 16:18 | 51.73312 | 1.38592 | 21574 ft | 364 kts | 264° |
| 2026-05-06 16:18 | 51.73049 | 1.34551 | 21090 ft | 360 kts | 264° |
| 2026-05-06 16:18 | 51.72787 | 1.30552 | 20596 ft | 357 kts | 264° |
| 2026-05-06 16:18 | 51.72526 | 1.26580 | 20094 ft | 355 kts | 264° |
| 2026-05-06 16:19 | 51.72264 | 1.22636 | 19591 ft | 352 kts | 264° |
| 2026-05-06 16:19 | 51.72001 | 1.18724 | 19090 ft | 349 kts | 264° |
| 2026-05-06 16:19 | 51.71740 | 1.14839 | 18590 ft | 347 kts | 264° |
| 2026-05-06 16:19 | 51.71485 | 1.11024 | 18072 ft | 346 kts | 264° |
| 2026-05-06 16:20 | 51.71228 | 1.07174 | 17545 ft | 342 kts | 264° |
| 2026-05-06 16:20 | 51.70968 | 1.03374 | 17053 ft | 339 kts | 264° |
| 2026-05-06 16:20 | 51.70708 | 0.99619 | 16561 ft | 336 kts | 264° |
| 2026-05-06 16:20 | 51.70450 | 0.95892 | 16074 ft | 333 kts | 264° |
| 2026-05-06 16:21 | 51.70193 | 0.92190 | 15610 ft | 330 kts | 264° |
| 2026-05-06 16:21 | 51.69937 | 0.88525 | 15132 ft | 328 kts | 264° |
| 2026-05-06 16:21 | 51.69682 | 0.84884 | 14670 ft | 325 kts | 264° |
| 2026-05-06 16:21 | 51.69431 | 0.81270 | 14184 ft | 324 kts | 265° |
| 2026-05-06 16:22 | 51.69182 | 0.77678 | 13706 ft | 322 kts | 264° |
| 2026-05-06 16:22 | 51.68935 | 0.74148 | 13214 ft | 320 kts | 264° |
| 2026-05-06 16:22 | 51.68682 | 0.70602 | 12745 ft | 317 kts | 264° |
| 2026-05-06 16:22 | 51.68430 | 0.67087 | 12286 ft | 314 kts | 265° |
| 2026-05-06 16:23 | 51.68181 | 0.63595 | 11831 ft | 312 kts | 265° |
| 2026-05-06 16:23 | 51.67933 | 0.60135 | 11375 ft | 310 kts | 265° |
| 2026-05-06 16:23 | 51.67682 | 0.56694 | 11005 ft | 306 kts | 264° |
| 2026-05-06 16:23 | 51.67435 | 0.53356 | 10872 ft | 294 kts | 264° |
| 2026-05-06 16:24 | 51.67198 | 0.50139 | 10754 ft | 285 kts | 265° |
| 2026-05-06 16:24 | 51.66969 | 0.46977 | 10621 ft | 284 kts | 265° |
| 2026-05-06 16:24 | 51.66739 | 0.43825 | 10497 ft | 282 kts | 266° |
| 2026-05-06 16:24 | 51.66508 | 0.40691 | 10372 ft | 282 kts | 266° |
| 2026-05-06 16:25 | 51.66280 | 0.37556 | 10252 ft | 283 kts | 265° |
| 2026-05-06 16:25 | 51.66047 | 0.34411 | 10133 ft | 282 kts | 265° |
| 2026-05-06 16:25 | 51.65812 | 0.31272 | 10010 ft | 283 kts | 265° |
| 2026-05-06 16:25 | 51.65576 | 0.28131 | 9888 ft | 282 kts | 265° |
| 2026-05-06 16:26 | 51.65339 | 0.25003 | 9757 ft | 281 kts | 265° |
| 2026-05-06 16:26 | 51.65102 | 0.21918 | 9624 ft | 280 kts | 265° |
| 2026-05-06 16:26 | 51.64867 | 0.18814 | 9492 ft | 279 kts | 265° |
| 2026-05-06 16:26 | 51.64637 | 0.15706 | 9358 ft | 280 kts | 265° |
| 2026-05-06 16:27 | 51.64426 | 0.12593 | 9224 ft | 279 kts | 266° |
| 2026-05-06 16:27 | 51.64253 | 0.09475 | 9087 ft | 280 kts | 266° |
| 2026-05-06 16:27 | 51.64093 | 0.06355 | 8957 ft | 279 kts | 267° |
| 2026-05-06 16:27 | 51.63933 | 0.03245 | 8821 ft | 278 kts | 267° |
| 2026-05-06 16:28 | 51.63768 | 0.00135 | 8694 ft | 279 kts | 267° |
| 2026-05-06 16:28 | 51.63602 | -0.02964 | 8600 ft | 276 kts | 268° |
| 2026-05-06 16:28 | 51.63435 | -0.06035 | 8473 ft | 274 kts | 267° |
| 2026-05-06 16:28 | 51.63266 | -0.09093 | 8344 ft | 275 kts | 267° |
| 2026-05-06 16:29 | 51.63092 | -0.12148 | 8224 ft | 274 kts | 267° |
| 2026-05-06 16:29 | 51.62917 | -0.15162 | 8096 ft | 275 kts | 266° |
| 2026-05-06 16:29 | 51.62741 | -0.18226 | 7969 ft | 275 kts | 267° |
| 2026-05-06 16:29 | 51.62566 | -0.21285 | 7843 ft | 273 kts | 267° |
| 2026-05-06 16:30 | 51.62390 | -0.24335 | 7708 ft | 274 kts | 267° |
| 2026-05-06 16:30 | 51.62270 | -0.26386 | 7628 ft | 272 kts | 267° |
| 2026-05-06 16:30 | 51.62035 | -0.30405 | 7460 ft | 272 kts | 267° |
| 2026-05-06 16:30 | 51.61858 | -0.33436 | 7280 ft | 272 kts | 267° |
| 2026-05-06 16:31 | 51.61679 | -0.36469 | 7156 ft | 272 kts | 266° |
| 2026-05-06 16:31 | 51.61499 | -0.39490 | 7036 ft | 272 kts | 266° |
| 2026-05-06 16:31 | 51.61319 | -0.42515 | 7000 ft | 272 kts | 266° |
| 2026-05-06 16:31 | 51.61138 | -0.45546 | 7002 ft | 272 kts | 266° |
| 2026-05-06 16:32 | 51.60957 | -0.48579 | 7003 ft | 272 kts | 266° |
| 2026-05-06 16:32 | 51.60777 | -0.51593 | 7000 ft | 266 kts | 267° |
| 2026-05-06 16:32 | 51.60602 | -0.54473 | 7000 ft | 252 kts | 266° |
| 2026-05-06 16:32 | 51.60433 | -0.57204 | 7000 ft | 242 kts | 266° |
| 2026-05-06 16:33 | 51.60269 | -0.59884 | 7001 ft | 240 kts | 267° |
| 2026-05-06 16:33 | 51.60107 | -0.62553 | 6999 ft | 240 kts | 266° |
| 2026-05-06 16:33 | 51.59945 | -0.65232 | 6974 ft | 241 kts | 266° |
| 2026-05-06 16:34 | 51.59619 | -0.70529 | 6514 ft | 237 kts | 266° |
| 2026-05-06 16:34 | 51.59453 | -0.73156 | 6264 ft | 235 kts | 266° |
| 2026-05-06 16:34 | 51.59272 | -0.75747 | 5995 ft | 232 kts | 261° |
| 2026-05-06 16:34 | 51.58576 | -0.78061 | 5731 ft | 233 kts | 229° |
| 2026-05-06 16:35 | 51.57227 | -0.79444 | 5469 ft | 232 kts | 196° |
| 2026-05-06 16:35 | 51.55646 | -0.79616 | 5194 ft | 224 kts | 178° |
| 2026-05-06 16:35 | 51.54125 | -0.79524 | 4889 ft | 213 kts | 178° |
| 2026-05-06 16:35 | 51.52675 | -0.79439 | 4510 ft | 205 kts | 178° |
| 2026-05-06 16:36 | 51.51268 | -0.79361 | 4189 ft | 201 kts | 178° |
| 2026-05-06 16:36 | 51.49877 | -0.79285 | 3899 ft | 198 kts | 178° |
| 2026-05-06 16:36 | 51.48535 | -0.78926 | 3634 ft | 196 kts | 149° |
| 2026-05-06 16:36 | 51.47688 | -0.77340 | 3380 ft | 188 kts | 104° |
| 2026-05-06 16:37 | 51.47704 | -0.75314 | 3130 ft | 182 kts | 75° |
| 2026-05-06 16:37 | 51.47730 | -0.73268 | 3032 ft | 186 kts | 91° |
| 2026-05-06 16:37 | 51.47662 | -0.71223 | 2897 ft | 185 kts | 87° |
| 2026-05-06 16:37 | 51.47653 | -0.69166 | 2669 ft | 184 kts | 85° |
| 2026-05-06 16:38 | 51.47659 | -0.67123 | 2433 ft | 182 kts | 86° |
| 2026-05-06 16:38 | 51.47669 | -0.65108 | 2191 ft | 179 kts | 86° |
| 2026-05-06 16:38 | 51.47679 | -0.63130 | 1949 ft | 176 kts | 85° |
| 2026-05-06 16:38 | 51.47688 | -0.61215 | 1711 ft | 165 kts | 85° |
| 2026-05-06 16:39 | 51.47696 | -0.59455 | 1486 ft | 149 kts | 84° |
| 2026-05-06 16:39 | 51.47703 | -0.57859 | 1294 ft | 138 kts | 84° |
| 2026-05-06 16:39 | 51.47712 | -0.56334 | 1112 ft | 135 kts | 84° |
| 2026-05-06 16:39 | 51.47719 | -0.54841 | 924 ft | 133 kts | 84° |
| 2026-05-06 16:40 | 51.47724 | -0.53357 | 743 ft | 132 kts | 84° |
| 2026-05-06 16:40 | 51.47727 | -0.51892 | 536 ft | 132 kts | 85° |
| 2026-05-06 16:40 | 51.47735 | -0.50421 | 371 ft | 132 kts | 86° |
| 2026-05-06 16:40 | 51.47746 | -0.48955 | 179 ft | 131 kts | 85° |
| 2026-05-06 16:41 | 51.47751 | -0.47531 | 88 ft | 122 kts | 87° |
| 2026-05-06 16:41 | 51.47760 | -0.46433 | 89 ft | 69 kts | 90° |
| 2026-05-06 16:41 | 51.47760 | -0.45795 | 84 ft | 43 kts | 89° |
| 2026-05-06 16:41 | 51.47743 | -0.45496 | 87 ft | 16 kts | 131° |
| 2026-05-06 16:42 | 51.47646 | -0.45469 | 86 ft | 13 kts | 181° |
| 2026-05-06 16:42 | 51.47593 | -0.45535 | 87 ft | 12 kts | 267° |
| 2026-05-06 16:42 | 51.47595 | -0.45686 | 88 ft | 16 kts | 270° |
| 2026-05-06 16:42 | 51.47595 | -0.45882 | 90 ft | 20 kts | 270° |
| 2026-05-06 16:43 | 51.47595 | -0.46124 | 86 ft | 24 kts | 269° |
| 2026-05-06 16:43 | 51.47593 | -0.46407 | 86 ft | 26 kts | 269° |
| 2026-05-06 16:43 | 51.47592 | -0.46664 | 86 ft | 21 kts | 270° |
| 2026-05-06 16:43 | 51.47583 | -0.46905 | 90 ft | 22 kts | 266° |
| 2026-05-06 16:44 | 51.47582 | -0.47154 | 90 ft | 24 kts | 270° |
| 2026-05-06 16:44 | 51.47581 | -0.47438 | 90 ft | 28 kts | 269° |
| 2026-05-06 16:44 | 51.47580 | -0.47714 | 90 ft | 24 kts | 270° |
| 2026-05-06 16:44 | 51.47579 | -0.47895 | 87 ft | 25 kts | 270° |
| 2026-05-06 16:45 | 51.47578 | -0.48269 | 88 ft | 23 kts | 269° |
| 2026-05-06 16:45 | 51.47575 | -0.48449 | 86 ft | 11 kts | 257° |
| 2026-05-06 16:45 | 51.47511 | -0.48477 | 86 ft | 11 kts | 177° |
| 2026-05-06 16:45 | 51.47443 | -0.48475 | 86 ft | 7 kts | 180° |
| 2026-05-06 16:46 | 51.47389 | -0.48475 | 86 ft | 6 kts | 179° |
| 2026-05-06 16:46 | 51.47369 | -0.48474 | 86 ft | 1 kts | 179° |
| 2026-05-06 16:46 | 51.47358 | -0.48474 | 86 ft | 3 kts | 179° |
| 2026-05-06 16:46 | 51.47342 | -0.48474 | 86 ft | 2 kts | 179° |
| 2026-05-06 16:47 | 51.47333 | -0.48473 | 86 ft | 2 kts | 178° |
| 2026-05-06 16:47 | 51.47319 | -0.48473 | 86 ft | 1 kts | 178° |
| 2026-05-06 16:47 | 51.47318 | -0.48473 | 86 ft | 0 kts | 178° |
| 2026-05-06 16:48 | 51.47317 | -0.48472 | 86 ft | 2 kts | 178° |
| 2026-05-06 16:49 | 51.47282 | -0.48472 | 89 ft | 7 kts | 180° |
| 2026-05-06 16:49 | 51.47219 | -0.48473 | 86 ft | 11 kts | 180° |
| 2026-05-06 16:49 | 51.47143 | -0.48472 | 86 ft | 10 kts | 179° |
| 2026-05-06 16:49 | 51.47096 | -0.48479 | 87 ft | 6 kts | 211° |
| 2026-05-06 16:50 | 51.47087 | -0.48548 | 86 ft | 5 kts | 271° |
| 2026-05-06 16:50 | 51.47087 | -0.48578 | 86 ft | 1 kts | 270° |
| 2026-05-06 16:50 | 51.47087 | -0.48584 | 86 ft | 0 kts | 270° |